createdAt,value
2018-12-10T00:01:20.199Z,100056.47
2018-12-10T00:04:24.972Z,100050.42
2018-12-10T00:07:29.453Z,100068.53
2018-12-10T00:10:41.396Z,100079.27
2018-12-10T00:13:41.143Z,100080.11
2018-12-10T00:16:45.863Z,100086.16
2018-12-10T00:19:50.370Z,100088.13
2018-12-10T00:22:54.963Z,100085.63
2018-12-10T00:25:59.579Z,100090.56
2018-12-10T00:32:16.103Z,100098.95
2018-12-10T00:35:23.727Z,100104.38
2018-12-10T00:38:29.823Z,100115.25
2018-12-10T00:41:34.434Z,100106.03
2018-12-10T00:44:39.017Z,100115.69
2018-12-10T00:47:43.841Z,100104.38
2018-12-10T00:50:48.327Z,100114.88
2018-12-10T00:57:05.181Z,100139.83
2018-12-10T01:00:10.218Z,100139.42
2018-12-10T01:03:14.818Z,100132.63
2018-12-10T01:06:20.272Z,100143.82
2018-12-10T01:09:24.902Z,100140.23
2018-12-10T01:12:29.366Z,100131.73
2018-12-10T01:15:34.714Z,100146.09
2018-12-10T01:18:40.442Z,100134.52
2018-12-10T01:21:46.629Z,100142.45
2018-12-10T01:28:05.358Z,100150.17
2018-12-10T01:31:10.039Z,100155.25
2018-12-10T01:34:15.026Z,100164.11
2018-12-10T01:37:19.756Z,100169.06
2018-12-10T01:40:24.582Z,100172.41
2018-12-10T01:43:29.269Z,100171.81
2018-12-10T01:46:36.015Z,100176.47
2018-12-10T01:49:40.597Z,100168.30
2018-12-10T01:52:45.131Z,100175.28
2018-12-10T01:55:50.023Z,100178.78
2018-12-10T01:58:55.544Z,100179.65
2018-12-10T02:02:00.253Z,100183.06
2018-12-10T02:05:05.014Z,100179.27
2018-12-10T02:08:09.449Z,100189.39
2018-12-10T02:11:14.140Z,100193.70
2018-12-10T02:14:19.149Z,100193.51
2018-12-10T02:20:38.573Z,100205.44
2018-12-10T02:23:43.185Z,100208.20
2018-12-10T02:26:48.681Z,100198.05
2018-12-10T02:33:05.915Z,100198.14
2018-12-10T02:36:10.469Z,100201.84
2018-12-10T02:39:20.025Z,100198.17
2018-12-10T02:42:24.499Z,100207.41
2018-12-10T02:45:29.162Z,100204.00
2018-12-10T02:48:33.676Z,100206.83
2018-12-10T02:51:38.370Z,100212.39
2018-12-10T02:54:42.904Z,100215.83
2018-12-10T02:57:48.185Z,100213.87
2018-12-10T03:00:53.999Z,100214.45
2018-12-10T03:03:58.528Z,100210.27
2018-12-10T03:07:03.060Z,100213.84
2018-12-10T03:10:08.107Z,100213.84
2018-12-10T03:13:13.032Z,100224.48
2018-12-10T03:16:17.858Z,100227.50
2018-12-10T03:19:23.120Z,100218.50
2018-12-10T03:22:28.409Z,100227.89
2018-12-10T03:25:33.646Z,100237.02
2018-12-10T03:28:38.158Z,100236.89
2018-12-10T03:31:44.070Z,100210.77
2018-12-10T03:34:48.910Z,100240.50
2018-12-10T03:37:53.568Z,100248.48
2018-12-10T03:40:58.226Z,100246.70
2018-12-10T03:44:04.281Z,100249.77
2018-12-10T03:47:09.165Z,100249.34
2018-12-10T03:50:13.826Z,100254.75
2018-12-10T03:53:18.468Z,100256.48
2018-12-10T03:59:35.876Z,100273.82
2018-12-10T04:02:40.399Z,100264.20
2018-12-10T04:05:45.396Z,100269.67
2018-12-10T04:08:50.125Z,100258.55
2018-12-10T04:11:54.943Z,100262.56
2018-12-10T04:15:01.778Z,100270.70
2018-12-10T04:18:07.256Z,100291.31
2018-12-10T04:21:11.854Z,100281.24
2018-12-10T04:24:16.406Z,100288.80
2018-12-10T04:27:20.935Z,100287.58
2018-12-10T04:30:25.945Z,100294.39
2018-12-10T04:33:30.519Z,100295.39
2018-12-10T04:36:35.592Z,100304.95
2018-12-10T04:39:40.707Z,100305.78
2018-12-10T04:42:45.257Z,100310.52
2018-12-10T04:45:50.192Z,100306.12
2018-12-10T04:48:56.391Z,100337.36
2018-12-10T04:52:00.892Z,100323.30
2018-12-10T04:55:06.049Z,100327.66
2018-12-10T04:58:11.066Z,100322.06
2018-12-10T05:01:15.687Z,100321.84
2018-12-10T05:04:20.538Z,100327.51
2018-12-10T05:07:25.066Z,100339.50
2018-12-10T05:10:29.867Z,100328.77
2018-12-10T05:13:35.291Z,100332.56
2018-12-10T05:16:40.460Z,100336.59
2018-12-10T05:19:45.190Z,100347.30
2018-12-10T05:22:49.670Z,100349.72
2018-12-10T05:25:54.324Z,100351.45
2018-12-10T05:29:00.223Z,100354.70
2018-12-10T05:32:04.902Z,100362.04
2018-12-10T05:35:09.512Z,100370.28
2018-12-10T05:38:14.146Z,100371.00
2018-12-10T05:41:18.557Z,100367.50
2018-12-10T05:44:23.119Z,100372.46
2018-12-10T05:47:29.159Z,100377.26
2018-12-10T05:50:33.689Z,100382.09
2018-12-10T05:53:39.708Z,100385.15
2018-12-10T05:56:44.135Z,100379.49
2018-12-10T05:59:49.187Z,100382.14
2018-12-10T06:02:53.745Z,100399.08
2018-12-10T06:05:58.337Z,100392.70
2018-12-10T06:09:03.265Z,100396.67
2018-12-10T06:12:08.158Z,100400.64
2018-12-10T06:15:12.879Z,100399.35
2018-12-10T06:18:17.555Z,100391.42
2018-12-10T06:21:22.154Z,100390.45
2018-12-10T06:24:27.269Z,100402.72
2018-12-10T06:27:31.819Z,100389.37
2018-12-10T06:30:36.317Z,100414.44
2018-12-10T06:33:41.061Z,100413.98
2018-12-10T06:36:45.583Z,100403.03
2018-12-10T06:39:58.408Z,100408.50
2018-12-10T06:43:02.761Z,100416.80
2018-12-10T06:46:09.279Z,100426.83
2018-12-10T06:49:13.735Z,100430.68
2018-12-10T06:52:18.137Z,100421.89
2018-12-10T06:55:22.765Z,100445.37
2018-12-10T06:58:27.061Z,100437.13
2018-12-10T07:01:31.699Z,100423.33
2018-12-10T07:04:36.113Z,100420.76
2018-12-10T07:07:40.520Z,100424.16
2018-12-10T07:10:46.446Z,100445.14
2018-12-10T07:13:50.739Z,100463.44
2018-12-10T07:16:56.155Z,100474.33
2018-12-10T07:20:01.256Z,100464.03
2018-12-10T07:23:06.300Z,100466.12
2018-12-10T07:26:10.847Z,100473.12
2018-12-10T07:29:15.765Z,100476.34
2018-12-10T07:32:20.137Z,100476.59
2018-12-10T07:35:24.566Z,100477.58
2018-12-10T07:38:28.863Z,100483.78
2018-12-10T07:41:33.329Z,100487.75
2018-12-10T07:44:37.981Z,100483.66
2018-12-10T07:47:42.362Z,100496.17
2018-12-10T07:50:47.464Z,100483.95
2018-12-10T07:57:08.426Z,100495.31
2018-12-10T08:00:12.789Z,100506.35
2018-12-10T08:03:18.322Z,100507.64
2018-12-10T08:06:29.433Z,100509.53
2018-12-10T08:09:35.135Z,100527.76
2018-12-10T08:12:40.613Z,100525.19
2018-12-10T08:15:45.129Z,100525.41
2018-12-10T08:18:51.869Z,100519.59
2018-12-10T08:21:56.207Z,100522.37
2018-12-10T08:25:00.631Z,100518.00
2018-12-10T08:28:05.087Z,100519.91
2018-12-10T08:31:09.624Z,100505.78
2018-12-10T08:34:14.001Z,100512.91
2018-12-10T08:37:18.923Z,100511.98
2018-12-10T08:40:23.389Z,100519.80
2018-12-10T08:43:27.811Z,100534.29
2018-12-10T08:46:34.035Z,100534.72
2018-12-10T08:49:39.561Z,100541.19
2018-12-10T08:52:44.041Z,100526.47
2018-12-10T08:55:48.753Z,100529.98
2018-12-10T08:58:53.347Z,100527.41
2018-12-10T09:01:58.689Z,100538.52
2018-12-10T09:05:06.428Z,100533.09
2018-12-10T09:08:10.967Z,100533.41
2018-12-10T09:11:15.438Z,100553.36
2018-12-10T09:17:37.397Z,100573.29
2018-12-10T09:20:41.859Z,100577.31
2018-12-10T09:23:46.536Z,100561.72
2018-12-10T09:26:54.299Z,100562.64
2018-12-10T09:33:25.506Z,100566.72
2018-12-10T09:36:30.241Z,100565.33
2018-12-10T09:39:38.914Z,100551.93
2018-12-10T09:42:45.770Z,100532.37
2018-12-10T09:45:51.476Z,100535.36
2018-12-10T09:48:58.600Z,100533.96
2018-12-10T09:52:12.243Z,100528.80
2018-12-10T09:55:17.763Z,100529.77
2018-12-10T10:01:36.722Z,100514.83
2018-12-10T10:04:41.999Z,100541.42
2018-12-10T10:07:51.260Z,100559.77
2018-12-10T10:10:55.789Z,100539.13
2018-12-10T10:14:00.216Z,100536.64
2018-12-10T10:17:05.165Z,100551.63
2018-12-10T10:20:09.723Z,100547.08
2018-12-10T10:23:15.700Z,100546.18
2018-12-10T10:26:20.133Z,100527.34
2018-12-10T10:29:55.303Z,100540.66
2018-12-10T10:33:00.251Z,100548.53
2018-12-10T10:36:07.110Z,100544.97
2018-12-10T10:39:11.597Z,100525.48
2018-12-10T10:42:21.449Z,100539.11
2018-12-10T10:45:34.449Z,100536.15
2018-12-10T10:48:33.620Z,100534.80
2018-12-10T10:51:38.611Z,100511.23
2018-12-10T10:54:43.007Z,100516.98
2018-12-10T10:57:48.614Z,100505.90
2018-12-10T11:00:58.515Z,100499.22
2018-12-10T11:04:04.156Z,100486.11
2018-12-10T11:07:08.787Z,100486.53
2018-12-10T11:10:25.669Z,100491.92
2018-12-10T11:13:31.003Z,100489.88
2018-12-10T11:16:36.386Z,100497.81
2018-12-10T11:19:41.421Z,100490.44
2018-12-10T11:22:46.445Z,100488.77
2018-12-10T11:25:52.887Z,100482.72
2018-12-10T11:29:00.181Z,100490.44
2018-12-10T11:32:16.030Z,100498.27
2018-12-10T11:35:21.419Z,100495.10
2018-12-10T11:38:26.235Z,100501.43
2018-12-10T11:41:30.719Z,100487.66
2018-12-10T11:44:37.602Z,100488.03
2018-12-10T11:47:48.545Z,100477.81
2018-12-10T11:50:53.063Z,100481.00
2018-12-10T11:53:57.380Z,100481.67
2018-12-10T11:57:01.679Z,100485.19
2018-12-10T12:00:08.504Z,100480.92
2018-12-10T12:23:12.948Z,100599.39
2018-12-10T12:26:15.453Z,100606.70
2018-12-10T12:29:19.209Z,100604.54
2018-12-10T12:32:22.445Z,100598.02
2018-12-10T12:35:25.797Z,100594.18
2018-12-10T12:41:09.618Z,100636.61
2018-12-10T12:44:13.028Z,100636.04
2018-12-10T12:47:17.133Z,100634.56
2018-12-10T12:50:21.512Z,100630.58
2018-12-10T12:53:25.818Z,100632.84
2018-12-10T12:56:29.122Z,100625.42
2018-12-10T12:59:33.016Z,100630.24
2018-12-10T13:02:36.365Z,100619.60
2018-12-10T13:05:39.678Z,100621.79
2018-12-10T13:08:43.136Z,100620.81
2018-12-10T13:11:46.324Z,100624.30
2018-12-10T13:14:49.945Z,100618.53
2018-12-10T13:17:53.164Z,100627.27
2018-12-10T13:20:56.400Z,100624.14
2018-12-10T13:23:59.700Z,100620.59
2018-12-10T13:27:02.986Z,100623.16
2018-12-10T13:30:06.470Z,100629.72
2018-12-10T13:33:10.118Z,100634.13
2018-12-10T13:36:13.358Z,100633.22
2018-12-10T13:39:16.563Z,100627.91
2018-12-10T13:42:19.776Z,100636.72
2018-12-10T13:45:22.980Z,100638.50
2018-12-10T13:48:27.031Z,100640.23
2018-12-10T13:51:30.262Z,100642.92
2018-12-10T13:54:33.490Z,100643.83
2018-12-10T13:57:37.029Z,100660.13
2018-12-10T14:00:40.764Z,100672.03
2018-12-10T14:03:44.694Z,100666.71
2018-12-10T14:06:49.183Z,100668.88
2018-12-10T14:09:52.537Z,100667.53
2018-12-10T14:12:55.845Z,100671.95
2018-12-10T14:15:59.226Z,100674.20
2018-12-10T14:19:02.698Z,100675.95
2018-12-10T14:22:06.062Z,100678.20
2018-12-10T14:25:30.245Z,100680.05
2018-12-10T14:28:33.631Z,100686.65
2018-12-10T14:31:36.804Z,100687.51
2018-12-10T14:34:39.983Z,100703.02
2018-12-10T14:37:43.167Z,100697.05
2018-12-10T14:40:46.455Z,100699.77
2018-12-10T14:43:49.628Z,100705.09
2018-12-10T14:46:53.882Z,100711.20
2018-12-10T14:49:57.101Z,100722.16
2018-12-10T14:53:02.919Z,100720.71
2018-12-10T14:56:07.185Z,100718.49
2018-12-10T14:59:10.496Z,100723.39
2018-12-10T15:02:13.704Z,100729.43
2018-12-10T15:05:16.950Z,100722.84
2018-12-10T15:08:21.354Z,100717.87
2018-12-10T15:11:24.564Z,100721.86
2018-12-10T15:14:27.904Z,100718.73
2018-12-10T15:17:31.474Z,100731.02
2018-12-10T15:20:34.901Z,100738.89
2018-12-10T15:23:38.201Z,100745.07
2018-12-10T15:26:41.464Z,100749.50
2018-12-10T15:29:44.655Z,100753.85
2018-12-10T15:32:48.117Z,100743.91
2018-12-10T15:35:51.379Z,100740.34
2018-12-10T15:38:54.578Z,100761.00
2018-12-10T15:41:57.806Z,100762.30
2018-12-10T15:45:01.178Z,100761.80
2018-12-10T15:48:04.465Z,100758.37
2018-12-10T15:51:08.607Z,100762.75
2018-12-10T15:54:11.818Z,100765.83
2018-12-10T15:57:16.433Z,100766.64
2018-12-10T16:00:19.959Z,100769.31
2018-12-10T16:03:23.261Z,100753.11
2018-12-10T16:06:26.757Z,100764.48
2018-12-10T16:09:30.248Z,100766.37
2018-12-10T16:12:33.474Z,100763.34
2018-12-10T16:15:36.801Z,100766.91
2018-12-10T16:18:40.008Z,100775.27
2018-12-10T16:21:44.057Z,100776.52
2018-12-10T16:24:47.233Z,100799.44
2018-12-10T16:27:50.652Z,100794.69
2018-12-10T16:30:54.244Z,100803.45
2018-12-10T16:33:57.458Z,100802.02
2018-12-10T16:37:00.638Z,100805.25
2018-12-10T16:40:04.798Z,100810.59
2018-12-10T16:43:08.035Z,100820.34
2018-12-10T16:46:11.283Z,100827.86
2018-12-10T16:49:14.552Z,100830.06
2018-12-10T16:52:18.013Z,100831.86
2018-12-10T16:55:21.522Z,100837.53
2018-12-10T16:58:24.899Z,100826.13
2018-12-10T17:01:28.100Z,100828.34
2018-12-10T17:04:31.634Z,100838.02
2018-12-10T17:07:35.012Z,100839.34
2018-12-10T17:10:38.284Z,100837.16
2018-12-10T17:13:41.477Z,100838.53
2018-12-10T17:16:45.048Z,100838.53
2018-12-10T17:19:48.256Z,100837.66
2018-12-10T17:22:52.852Z,100839.42
2018-12-10T17:25:56.147Z,100849.96
2018-12-10T17:28:59.452Z,100849.95
2018-12-10T17:32:03.765Z,100850.83
2018-12-10T17:35:07.336Z,100862.26
2018-12-10T17:38:10.707Z,100860.08
2018-12-10T17:41:14.010Z,100863.58
2018-12-10T17:44:17.353Z,100869.72
2018-12-10T17:47:20.753Z,100865.32
2018-12-10T17:50:23.974Z,100871.47
2018-12-10T17:53:27.228Z,100866.63
2018-12-10T17:56:30.673Z,100867.94
2018-12-10T17:59:34.381Z,100871.91
2018-12-10T18:02:37.696Z,100885.11
2018-12-10T18:05:40.934Z,100878.92
2018-12-10T18:08:44.230Z,100886.84
2018-12-10T18:11:47.564Z,100890.36
2018-12-10T18:14:50.843Z,100889.06
2018-12-10T18:17:54.138Z,100893.44
2018-12-10T18:20:57.806Z,100895.63
2018-12-10T18:24:01.008Z,100897.85
2018-12-10T18:27:04.590Z,100899.60
2018-12-10T18:30:10.006Z,100911.01
2018-12-10T18:33:13.285Z,100899.59
2018-12-10T18:36:16.689Z,100907.05
2018-12-10T18:39:23.289Z,100905.32
2018-12-10T18:42:30.928Z,100909.70
2018-12-10T18:45:34.481Z,100911.91
2018-12-10T18:48:37.915Z,100914.10
2018-12-10T18:51:41.394Z,100919.81
2018-12-10T18:54:44.853Z,100921.16
2018-12-10T18:57:48.141Z,100921.56
2018-12-10T19:00:51.605Z,100926.83
2018-12-10T19:03:54.875Z,100941.78
2018-12-10T19:06:58.180Z,100932.57
2018-12-10T19:10:01.498Z,100937.83
2018-12-10T19:13:04.825Z,100936.05
2018-12-10T19:16:09.493Z,100939.13
2018-12-10T19:19:14.362Z,100938.70
2018-12-10T19:22:17.777Z,100947.48
2018-12-10T19:25:21.139Z,100950.13
2018-12-10T19:28:24.644Z,100951.87
2018-12-10T19:31:28.029Z,100962.43
2018-12-10T19:34:31.388Z,100961.99
2018-12-10T19:37:34.865Z,100967.25
2018-12-10T19:40:38.411Z,100965.93
2018-12-10T19:43:41.964Z,100971.21
2018-12-10T19:46:45.447Z,100970.78
2018-12-10T19:49:49.506Z,100975.59
2018-12-10T19:52:53.073Z,100975.59
2018-12-10T19:55:56.553Z,100983.94
2018-12-10T19:59:01.468Z,100981.29
2018-12-10T20:02:05.109Z,100987.45
2018-12-10T20:05:08.736Z,100977.78
2018-12-10T20:08:12.327Z,100983.94
2018-12-10T20:11:15.728Z,100987.44
2018-12-10T20:14:19.809Z,100986.14
2018-12-10T20:17:23.666Z,100980.41
2018-12-10T20:20:28.136Z,100985.26
2018-12-10T20:23:31.535Z,100979.98
2018-12-10T20:26:35.101Z,100983.05
2018-12-10T20:29:38.545Z,100983.05
2018-12-10T20:32:41.994Z,100996.25
2018-12-10T20:35:45.573Z,100998.43
2018-12-10T20:38:49.043Z,101001.94
2018-12-10T20:41:52.613Z,101008.09
2018-12-10T20:44:56.128Z,101014.23
2018-12-10T20:47:59.566Z,101020.81
2018-12-10T20:51:03.058Z,101014.25
2018-12-10T20:54:08.220Z,101016.44
2018-12-10T20:57:11.573Z,101026.53
2018-12-10T21:00:15.085Z,101021.69
2018-12-10T21:03:18.375Z,101021.69
2018-12-10T21:06:28.263Z,101036.61
2018-12-10T21:09:31.567Z,101033.97
2018-12-10T21:12:34.955Z,101040.58
2018-12-10T21:15:38.442Z,101040.12
2018-12-10T21:18:41.758Z,101038.34
2018-12-10T21:21:45.310Z,101041.00
2018-12-10T21:24:48.591Z,101044.92
2018-12-10T21:27:52.397Z,101050.22
2018-12-10T21:30:55.665Z,101053.25
2018-12-10T21:34:00.612Z,101059.44
2018-12-10T21:37:04.911Z,101053.27
2018-12-10T21:40:08.394Z,101053.73
2018-12-10T21:43:11.723Z,101058.10
2018-12-10T21:46:15.060Z,101056.31
2018-12-10T21:49:18.248Z,101051.05
2018-12-10T21:52:21.423Z,101051.54
2018-12-10T21:55:24.725Z,101045.81
2018-12-10T21:58:27.973Z,101055.02
2018-12-10T22:01:31.395Z,101055.47
2018-12-10T22:04:34.653Z,101067.75
2018-12-10T22:07:38.075Z,101075.20
2018-12-10T22:10:42.097Z,101077.39
2018-12-10T22:13:45.367Z,101073.94
2018-12-10T22:16:48.662Z,101073.88
2018-12-10T22:19:51.877Z,101070.81
2018-12-10T22:22:55.212Z,101079.99
2018-12-10T22:25:58.490Z,101084.41
2018-12-10T22:29:03.471Z,101088.39
2018-12-10T22:32:06.986Z,101100.23
2018-12-10T22:35:10.529Z,101100.20
2018-12-10T22:38:13.997Z,101099.78
2018-12-10T22:41:17.429Z,101100.20
2018-12-10T22:44:22.399Z,101097.97
2018-12-10T22:47:25.754Z,101108.10
2018-12-10T22:50:29.800Z,101104.16
2018-12-10T22:53:34.214Z,101117.34
2018-12-10T22:56:37.708Z,101122.56
2018-12-10T22:59:41.464Z,101125.17
2018-12-10T23:02:44.898Z,101132.64
2018-12-10T23:05:50.835Z,101128.69
2018-12-10T23:08:55.592Z,101129.57
2018-12-10T23:11:58.847Z,101128.27
2018-12-10T23:15:02.778Z,101134.39
2018-12-10T23:18:06.371Z,101127.80
2018-12-10T23:21:09.796Z,101137.05
2018-12-10T23:24:13.225Z,101137.92
2018-12-10T23:27:16.393Z,101149.34
2018-12-10T23:30:19.697Z,101145.34
2018-12-10T23:33:22.902Z,101155.39
2018-12-10T23:36:26.246Z,101154.10
2018-12-10T23:39:29.460Z,101160.26
2018-12-10T23:42:32.892Z,101156.28
2018-12-10T23:45:36.180Z,101170.76
2018-12-10T23:48:39.339Z,101176.42
2018-12-10T23:51:42.559Z,101173.78
2018-12-10T23:54:45.798Z,101179.08
2018-12-10T23:57:48.972Z,101179.05
